createdAt,value
2019-03-09T00:01:06.003Z,10.27
2019-03-09T00:06:13.575Z,10.37
2019-03-09T00:11:20.016Z,9.40
2019-03-09T00:16:28.219Z,4.07
2019-03-09T00:21:34.518Z,9.77
2019-03-09T00:26:53.984Z,8.70
2019-03-09T00:32:03.819Z,3.23
2019-03-09T00:37:10.207Z,10.45
2019-03-09T00:42:16.414Z,7.80
2019-03-09T00:47:22.646Z,6.33
2019-03-09T00:52:28.987Z,5.47
2019-03-09T00:57:35.341Z,9.43
2019-03-09T01:02:41.632Z,7.43
2019-03-09T01:07:47.835Z,6.23
2019-03-09T01:12:54.066Z,7.77
2019-03-09T01:18:00.469Z,7.33
2019-03-09T01:23:06.825Z,6.83
2019-03-09T01:28:13.061Z,7.13
2019-03-09T01:33:19.314Z,6.90
2019-03-09T01:38:25.563Z,7.12
2019-03-09T01:43:31.845Z,8.00
2019-03-09T01:48:39.195Z,6.83
2019-03-09T01:53:45.416Z,6.43
2019-03-09T01:58:51.655Z,5.20
2019-03-09T02:03:57.872Z,7.35
2019-03-09T02:09:05.816Z,5.80
2019-03-09T02:14:13.695Z,6.33
2019-03-09T02:19:19.958Z,8.77
2019-03-09T02:24:26.261Z,5.33
2019-03-09T02:29:32.532Z,5.85
2019-03-09T02:34:38.830Z,5.33
2019-03-09T02:39:59.356Z,7.17
2019-03-09T02:45:07.454Z,6.87
2019-03-09T02:50:14.238Z,5.87
2019-03-09T02:55:20.534Z,5.50
2019-03-09T03:00:28.445Z,5.77
2019-03-09T03:05:34.700Z,5.53
2019-03-09T03:10:41.028Z,5.67
2019-03-09T03:15:47.287Z,5.87
2019-03-09T03:20:55.428Z,5.40
2019-03-09T03:26:01.663Z,5.53
2019-03-09T03:31:07.937Z,5.25
2019-03-09T03:36:14.395Z,4.97
2019-03-09T03:41:20.816Z,5.53
2019-03-09T03:46:27.134Z,4.47
2019-03-09T03:51:33.487Z,4.42
2019-03-09T03:56:40.047Z,4.47
2019-03-09T04:01:46.361Z,4.17
2019-03-09T04:06:52.624Z,5.00
2019-03-09T04:11:58.831Z,5.17
2019-03-09T04:17:05.926Z,6.55
2019-03-09T04:22:12.324Z,6.50
2019-03-09T04:27:18.572Z,6.13
2019-03-09T04:32:24.806Z,6.27
2019-03-09T04:37:32.212Z,7.00
2019-03-09T04:42:38.542Z,6.85
2019-03-09T04:47:44.861Z,8.07
2019-03-09T04:52:51.107Z,8.60
2019-03-09T04:57:57.393Z,8.80
2019-03-09T05:03:03.697Z,9.25
2019-03-09T05:08:20.651Z,10.50
2019-03-09T05:13:33.385Z,10.63
2019-03-09T05:18:39.713Z,11.97
2019-03-09T05:23:46.024Z,11.23
2019-03-09T05:28:52.272Z,12.10
2019-03-09T05:33:58.526Z,13.73
2019-03-09T05:39:07.048Z,13.57
2019-03-09T05:44:16.584Z,14.03
2019-03-09T05:49:22.870Z,13.67
2019-03-09T05:54:29.140Z,15.10
2019-03-09T05:59:35.398Z,16.70
2019-03-09T06:04:41.687Z,15.87
2019-03-09T06:09:48.147Z,16.93
2019-03-09T06:14:54.423Z,16.23
2019-03-09T06:20:00.851Z,18.93
2019-03-09T06:25:07.447Z,17.83
2019-03-09T06:30:14.003Z,18.27
2019-03-09T06:35:20.365Z,17.13
2019-03-09T06:40:26.641Z,15.97
2019-03-09T06:45:32.894Z,16.60
2019-03-09T06:50:39.213Z,16.53
2019-03-09T06:55:45.507Z,16.12
2019-03-09T07:00:51.884Z,17.37
2019-03-09T07:05:58.329Z,15.10
2019-03-09T07:11:05.681Z,14.77
2019-03-09T07:16:12.186Z,16.25
2019-03-09T07:21:18.438Z,12.47
2019-03-09T07:26:24.836Z,12.97
2019-03-09T07:31:31.101Z,11.67
2019-03-09T07:36:37.734Z,11.65
2019-03-09T07:41:44.157Z,11.80
2019-03-09T07:46:50.507Z,12.50
2019-03-09T07:51:56.921Z,9.68
2019-03-09T07:57:03.313Z,11.37
2019-03-09T08:02:09.645Z,9.80
2019-03-09T08:07:16.217Z,12.60
2019-03-09T08:12:24.107Z,11.97
2019-03-09T08:17:30.776Z,12.37
2019-03-09T08:22:37.191Z,9.17
2019-03-09T08:27:43.502Z,11.90
2019-03-09T08:32:49.857Z,12.07
2019-03-09T08:37:56.159Z,10.00
2019-03-09T08:43:02.494Z,10.83
2019-03-09T08:48:10.756Z,8.67
2019-03-09T08:53:17.112Z,11.67
2019-03-09T08:58:23.691Z,13.45
2019-03-09T09:03:30.122Z,10.23
2019-03-09T09:08:36.535Z,11.73
2019-03-09T09:13:42.793Z,7.57
2019-03-09T09:18:49.159Z,8.00
2019-03-09T09:23:55.507Z,10.47
2019-03-09T09:29:01.997Z,9.95
2019-03-09T09:34:08.470Z,10.05
2019-03-09T09:39:14.876Z,10.70
2019-03-09T09:44:21.270Z,8.73
2019-03-09T09:49:27.661Z,9.80
2019-03-09T09:54:34.187Z,11.43
2019-03-09T09:59:40.953Z,9.30
2019-03-09T10:04:47.238Z,9.40
2019-03-09T10:09:53.611Z,6.30
2019-03-09T10:14:59.975Z,6.47
2019-03-09T10:20:06.920Z,9.50
2019-03-09T10:25:14.793Z,10.67
2019-03-09T10:30:21.906Z,10.33
2019-03-09T10:35:28.276Z,7.53
2019-03-09T10:40:34.756Z,8.97
2019-03-09T10:45:41.032Z,11.60
2019-03-09T10:50:47.424Z,10.13
2019-03-09T10:55:53.684Z,8.80
2019-03-09T11:01:01.090Z,13.57
2019-03-09T11:06:07.804Z,11.33
2019-03-09T11:11:14.227Z,10.13
2019-03-09T11:16:20.574Z,15.70
2019-03-09T11:21:27.010Z,13.73
2019-03-09T11:26:33.611Z,11.53
2019-03-09T11:31:41.011Z,12.27
2019-03-09T11:36:47.421Z,15.23
2019-03-09T11:41:54.169Z,11.22
2019-03-09T11:47:00.554Z,16.57
2019-03-09T11:52:06.987Z,18.87
2019-03-09T11:57:13.376Z,11.38
2019-03-09T12:02:19.721Z,13.53
2019-03-09T12:07:25.985Z,13.43
2019-03-09T12:12:32.586Z,12.03
2019-03-09T12:17:39.026Z,11.80
2019-03-09T12:22:45.361Z,11.70
2019-03-09T12:27:51.737Z,10.48
2019-03-09T12:32:58.137Z,11.87
2019-03-09T12:38:05.420Z,9.70
2019-03-09T12:43:12.162Z,10.23
2019-03-09T12:48:19.124Z,13.23
2019-03-09T12:53:25.647Z,13.35
2019-03-09T12:58:32.074Z,16.30
2019-03-09T13:03:38.448Z,18.23
2019-03-09T13:08:44.765Z,19.43
2019-03-09T13:13:51.297Z,14.80
2019-03-09T13:18:58.000Z,18.97
2019-03-09T13:24:05.452Z,15.83
2019-03-09T13:29:11.828Z,21.70
2019-03-09T13:34:18.437Z,23.65
2019-03-09T13:39:24.981Z,20.67
2019-03-09T13:44:31.477Z,21.67
2019-03-09T13:49:37.972Z,24.93
2019-03-09T13:54:45.463Z,25.80
2019-03-09T13:59:51.874Z,18.90
2019-03-09T14:04:58.307Z,24.50
2019-03-09T14:10:06.696Z,26.68
2019-03-09T14:15:14.140Z,30.07
2019-03-09T14:20:20.568Z,29.57
2019-03-09T14:25:27.077Z,24.87
2019-03-09T14:30:33.388Z,25.83
2019-03-09T14:35:39.830Z,24.23
2019-03-09T14:40:46.151Z,29.20
2019-03-09T14:45:52.647Z,28.50
2019-03-09T14:50:59.117Z,23.27
2019-03-09T14:56:05.647Z,23.65
2019-03-09T15:01:12.325Z,24.57
2019-03-09T15:06:21.991Z,22.13
2019-03-09T15:11:27.985Z,19.87
2019-03-09T15:16:36.022Z,22.80
2019-03-09T15:21:42.417Z,19.33
2019-03-09T15:26:48.709Z,22.40
2019-03-09T15:31:55.169Z,13.30
2019-03-09T15:37:01.547Z,16.47
2019-03-09T15:42:08.129Z,16.47
2019-03-09T15:47:14.527Z,16.17
2019-03-09T15:52:20.947Z,13.93
2019-03-09T15:57:27.394Z,11.93
2019-03-09T16:02:33.739Z,13.07
2019-03-09T16:07:40.205Z,7.00
2019-03-09T16:12:46.785Z,3.90
2019-03-09T16:17:53.475Z,3.70
2019-03-09T16:22:59.913Z,4.03
2019-03-09T16:28:06.918Z,9.17
2019-03-09T16:33:13.283Z,15.50
2019-03-09T16:38:19.789Z,11.25
2019-03-09T16:43:26.154Z,8.90
2019-03-09T16:48:32.726Z,11.48
2019-03-09T16:53:39.128Z,10.30
2019-03-09T16:58:45.524Z,12.50
2019-03-09T17:03:51.946Z,14.40
2019-03-09T17:08:58.284Z,13.77
2019-03-09T17:14:05.549Z,11.90
2019-03-09T17:19:12.012Z,12.90
2019-03-09T17:24:18.402Z,15.07
2019-03-09T17:29:24.776Z,10.72
2019-03-09T17:34:31.111Z,13.07
2019-03-09T17:39:37.625Z,14.30
2019-03-09T17:44:43.952Z,11.60
2019-03-09T17:49:50.280Z,12.98
2019-03-09T17:54:56.695Z,15.87
2019-03-09T18:00:03.213Z,14.53
2019-03-09T18:05:09.996Z,12.97
2019-03-09T18:10:26.214Z,11.30
2019-03-09T18:15:32.543Z,12.70
2019-03-09T18:20:38.867Z,13.77
2019-03-09T18:25:45.310Z,13.85
2019-03-09T18:30:51.641Z,11.03
2019-03-09T18:35:57.908Z,13.27
2019-03-09T18:41:04.306Z,12.97
2019-03-09T18:46:10.623Z,14.63
2019-03-09T18:51:18.170Z,13.93
2019-03-09T18:56:24.441Z,13.50
2019-03-09T19:01:30.719Z,15.50
2019-03-09T19:06:37.954Z,19.00
2019-03-09T19:11:45.152Z,17.87
2019-03-09T19:16:51.352Z,18.57
2019-03-09T19:21:57.604Z,14.83
2019-03-09T19:27:05.701Z,11.68
2019-03-09T19:32:12.060Z,9.45
2019-03-09T19:37:21.212Z,10.97
2019-03-09T19:42:27.457Z,8.60
2019-03-09T19:47:33.809Z,6.73
2019-03-09T19:52:40.231Z,8.87
2019-03-09T19:57:46.737Z,7.30
2019-03-09T20:02:53.105Z,7.90
2019-03-09T20:07:59.386Z,12.50
2019-03-09T20:13:05.767Z,4.97
2019-03-09T20:18:12.135Z,7.47
2019-03-09T20:23:18.487Z,5.67
2019-03-09T20:28:24.893Z,6.40
2019-03-09T20:33:31.207Z,7.40
2019-03-09T20:38:37.484Z,5.47
2019-03-09T20:43:43.764Z,9.67
2019-03-09T20:48:50.002Z,11.23
2019-03-09T20:53:56.446Z,9.40
2019-03-09T20:59:02.755Z,7.90
2019-03-09T21:04:09.171Z,11.93
2019-03-09T21:09:15.608Z,6.80
2019-03-09T21:14:21.937Z,11.37
2019-03-09T21:19:28.225Z,8.13
2019-03-09T21:24:34.791Z,11.90
2019-03-09T21:29:41.105Z,12.80
2019-03-09T21:34:47.413Z,13.93
2019-03-09T21:39:53.780Z,15.33
2019-03-09T21:45:00.093Z,15.17
2019-03-09T21:50:07.813Z,15.73
2019-03-09T21:55:14.269Z,15.27
2019-03-09T22:00:20.812Z,12.90
2019-03-09T22:05:29.941Z,13.10
2019-03-09T22:10:36.245Z,15.83
2019-03-09T22:15:42.507Z,14.93
2019-03-09T22:20:48.731Z,16.73
2019-03-09T22:25:55.057Z,17.70
2019-03-09T22:31:01.396Z,19.05
2019-03-09T22:36:08.849Z,23.10
2019-03-09T22:41:15.086Z,13.53
2019-03-09T22:46:21.751Z,22.87
2019-03-09T22:51:27.965Z,20.93
2019-03-09T22:56:34.217Z,13.53
2019-03-09T23:01:40.659Z,24.07
2019-03-09T23:06:47.069Z,19.07
2019-03-09T23:11:53.305Z,27.17
2019-03-09T23:16:59.654Z,26.20
2019-03-09T23:22:06.191Z,25.90
2019-03-09T23:27:12.608Z,23.30
2019-03-09T23:32:19.046Z,23.27
2019-03-09T23:37:25.388Z,22.20
2019-03-09T23:42:31.601Z,22.48
2019-03-09T23:47:38.004Z,20.80
2019-03-09T23:52:44.611Z,27.47
2019-03-09T23:57:50.992Z,18.23
